createdAt,value
2019-03-20T00:01:52.604Z,28.02
2019-03-20T00:04:23.780Z,29.20
2019-03-20T00:06:55.957Z,29.23
2019-03-20T00:09:26.993Z,29.20
2019-03-20T00:11:58.141Z,28.07
2019-03-20T00:14:29.280Z,27.42
2019-03-20T00:17:00.329Z,28.80
2019-03-20T00:19:31.473Z,27.55
2019-03-20T00:22:02.598Z,26.73
2019-03-20T00:24:33.758Z,26.70
2019-03-20T00:27:04.864Z,27.15
2019-03-20T00:29:36.048Z,28.83
2019-03-20T00:32:07.186Z,27.87
2019-03-20T00:34:39.353Z,27.20
2019-03-20T00:37:10.567Z,28.73
2019-03-20T00:39:41.652Z,28.07
2019-03-20T00:42:12.772Z,28.98
2019-03-20T00:44:44.652Z,26.60
2019-03-20T00:47:15.785Z,28.17
2019-03-20T00:49:46.946Z,26.02
2019-03-20T00:52:17.974Z,26.35
2019-03-20T00:54:49.019Z,28.52
2019-03-20T00:57:20.158Z,29.52
2019-03-20T00:59:51.303Z,30.82
2019-03-20T01:02:22.448Z,32.53
2019-03-20T01:04:53.594Z,34.38
2019-03-20T01:07:25.728Z,33.08
2019-03-20T01:09:56.798Z,32.98
2019-03-20T01:12:27.943Z,31.60
2019-03-20T01:14:59.007Z,30.82
2019-03-20T01:17:30.043Z,29.18
2019-03-20T01:20:01.069Z,28.38
2019-03-20T01:22:33.238Z,29.70
2019-03-20T01:25:06.459Z,30.48
2019-03-20T01:27:37.462Z,30.50
2019-03-20T01:30:13.031Z,31.02
2019-03-20T01:32:44.158Z,30.05
2019-03-20T01:35:23.553Z,31.70
2019-03-20T01:37:47.914Z,29.73
2019-03-20T01:40:18.972Z,29.82
2019-03-20T01:42:50.080Z,31.65
2019-03-20T01:45:21.083Z,28.80
2019-03-20T01:47:52.267Z,29.80
2019-03-20T01:50:23.445Z,30.27
2019-03-20T01:52:54.431Z,30.90
2019-03-20T01:55:25.529Z,30.88
2019-03-20T01:57:56.625Z,29.52
2019-03-20T02:00:27.739Z,31.12
2019-03-20T02:02:58.812Z,29.65
2019-03-20T02:05:35.784Z,32.38
2019-03-20T02:08:03.665Z,30.52
2019-03-20T02:10:34.829Z,28.85
2019-03-20T02:13:05.844Z,28.42
2019-03-20T02:15:39.114Z,30.88
2019-03-20T02:18:09.908Z,29.18
2019-03-20T02:20:41.055Z,28.05
2019-03-20T02:23:12.164Z,29.30
2019-03-20T02:25:43.177Z,30.08
2019-03-20T02:28:14.254Z,30.27
2019-03-20T02:30:45.340Z,31.17
2019-03-20T02:33:16.502Z,30.88
2019-03-20T02:35:51.970Z,30.97
2019-03-20T02:38:20.178Z,31.63
2019-03-20T02:40:51.206Z,32.80
2019-03-20T02:43:22.181Z,31.82
2019-03-20T02:45:53.192Z,32.90
2019-03-20T02:48:24.441Z,34.05
2019-03-20T02:50:55.474Z,32.35
2019-03-20T02:53:26.621Z,29.80
2019-03-20T02:55:57.669Z,31.45
2019-03-20T02:58:29.815Z,31.12
2019-03-20T03:01:00.856Z,29.45
2019-03-20T03:03:33.035Z,29.45
2019-03-20T03:06:07.033Z,30.62
2019-03-20T03:08:37.887Z,31.90
2019-03-20T03:11:08.861Z,34.33
2019-03-20T03:13:39.961Z,32.15
2019-03-20T03:16:11.008Z,36.90
2019-03-20T03:18:42.104Z,33.48
2019-03-20T03:21:13.185Z,30.72
2019-03-20T03:23:44.197Z,29.60
2019-03-20T03:26:15.267Z,30.82
2019-03-20T03:28:46.470Z,29.23
2019-03-20T03:31:17.556Z,29.45
2019-03-20T03:33:48.645Z,29.27
2019-03-20T03:36:21.601Z,30.37
2019-03-20T03:38:52.525Z,33.30
2019-03-20T03:41:24.693Z,32.90
2019-03-20T03:43:55.854Z,33.42
2019-03-20T03:46:27.978Z,31.62
2019-03-20T03:48:59.246Z,32.95
2019-03-20T03:51:30.240Z,32.38
2019-03-20T03:54:01.392Z,31.75
2019-03-20T03:56:32.482Z,30.60
2019-03-20T03:59:03.569Z,30.72
2019-03-20T04:01:34.561Z,31.95
2019-03-20T04:04:05.650Z,31.52
2019-03-20T04:06:36.850Z,31.68
2019-03-20T04:09:07.928Z,31.87
2019-03-20T04:11:38.903Z,34.65
2019-03-20T04:14:10.020Z,33.42
2019-03-20T04:16:41.393Z,34.58
2019-03-20T04:19:12.632Z,33.20
2019-03-20T04:21:43.722Z,33.18
2019-03-20T04:24:14.897Z,33.55
2019-03-20T04:26:45.909Z,32.83
2019-03-20T04:29:17.003Z,35.85
2019-03-20T04:31:48.084Z,35.68
2019-03-20T04:34:19.173Z,38.15
2019-03-20T04:36:50.233Z,37.20
2019-03-20T04:39:21.257Z,39.58
2019-03-20T04:41:52.240Z,39.92
2019-03-20T04:44:23.225Z,42.83
2019-03-20T04:46:54.431Z,49.18
2019-03-20T04:49:25.643Z,53.75
2019-03-20T04:51:56.736Z,55.98
2019-03-20T04:54:27.982Z,51.58
2019-03-20T04:56:59.027Z,53.15
2019-03-20T04:59:30.099Z,49.98
2019-03-20T05:02:01.199Z,53.48
2019-03-20T05:04:33.430Z,54.00
2019-03-20T05:07:04.526Z,52.85
2019-03-20T05:09:35.704Z,51.55
2019-03-20T05:12:06.724Z,52.85
2019-03-20T05:14:37.890Z,49.65
2019-03-20T05:17:08.955Z,45.50
2019-03-20T05:19:40.247Z,49.05
2019-03-20T05:22:11.376Z,50.38
2019-03-20T05:24:42.465Z,45.15
2019-03-20T05:27:13.560Z,44.15
2019-03-20T05:29:44.757Z,46.55
2019-03-20T05:32:15.860Z,44.88
2019-03-20T05:34:47.043Z,45.38
2019-03-20T05:37:18.137Z,46.00
2019-03-20T05:39:49.298Z,45.90
2019-03-20T05:42:20.332Z,44.85
2019-03-20T05:44:51.414Z,45.28
2019-03-20T05:47:22.557Z,46.02
2019-03-20T05:49:53.801Z,41.33
2019-03-20T05:52:25.161Z,41.75
2019-03-20T05:54:56.358Z,42.03
2019-03-20T05:57:27.450Z,42.00
2019-03-20T05:59:59.540Z,39.30
2019-03-20T06:02:30.673Z,37.88
2019-03-20T06:05:01.733Z,39.65
2019-03-20T06:07:32.888Z,39.15
2019-03-20T06:10:09.590Z,42.33
2019-03-20T06:12:40.724Z,40.15
2019-03-20T06:15:11.808Z,39.03
2019-03-20T06:17:42.902Z,35.65
2019-03-20T06:20:14.976Z,38.60
2019-03-20T06:22:46.120Z,40.40
2019-03-20T06:25:17.559Z,44.15
2019-03-20T06:27:50.005Z,40.63
2019-03-20T06:30:21.786Z,35.98
2019-03-20T06:32:52.874Z,36.83
2019-03-20T06:35:23.865Z,37.05
2019-03-20T06:37:55.137Z,35.88
2019-03-20T06:40:26.133Z,33.40
2019-03-20T06:42:57.244Z,31.57
2019-03-20T06:45:28.902Z,33.45
2019-03-20T06:48:00.106Z,33.00
2019-03-20T06:50:31.346Z,32.35
2019-03-20T06:53:02.426Z,31.23
2019-03-20T06:55:34.602Z,31.97
2019-03-20T06:58:05.801Z,31.90
2019-03-20T07:00:45.621Z,33.28
2019-03-20T07:03:37.923Z,33.58
2019-03-20T07:06:18.041Z,37.00
2019-03-20T07:08:58.453Z,36.38
2019-03-20T07:11:28.606Z,39.65
2019-03-20T07:13:59.715Z,37.53
2019-03-20T07:16:30.818Z,37.95
2019-03-20T07:19:01.823Z,35.50
2019-03-20T07:21:32.830Z,39.55
2019-03-20T07:24:03.858Z,41.95
2019-03-20T07:26:34.992Z,41.48
2019-03-20T07:29:06.047Z,41.05
2019-03-20T07:31:37.009Z,38.28
2019-03-20T07:34:08.106Z,42.48
2019-03-20T07:36:39.360Z,41.40
2019-03-20T07:39:10.447Z,45.95
2019-03-20T07:41:41.560Z,45.17
2019-03-20T07:44:12.663Z,40.88
2019-03-20T07:46:43.647Z,38.20
2019-03-20T07:49:14.668Z,35.65
2019-03-20T07:51:45.824Z,38.45
2019-03-20T07:54:16.874Z,38.28
2019-03-20T07:56:47.995Z,36.42
2019-03-20T07:59:19.082Z,32.53
2019-03-20T08:01:50.126Z,34.92
2019-03-20T08:04:21.436Z,38.95
2019-03-20T08:06:52.842Z,37.23
2019-03-20T08:09:25.651Z,40.70
2019-03-20T08:11:56.745Z,39.95
2019-03-20T08:14:27.770Z,42.10
2019-03-20T08:16:58.741Z,44.93
2019-03-20T08:19:29.708Z,42.67
2019-03-20T08:22:00.759Z,39.90
2019-03-20T08:24:32.308Z,40.63
2019-03-20T08:27:03.369Z,42.67
2019-03-20T08:29:34.454Z,43.08
2019-03-20T08:32:05.490Z,39.20
2019-03-20T08:34:36.630Z,38.73
2019-03-20T08:37:07.735Z,41.02
2019-03-20T08:39:38.814Z,45.30
2019-03-20T08:42:09.922Z,45.40
2019-03-20T08:44:41.049Z,41.20
2019-03-20T08:47:12.083Z,45.08
2019-03-20T08:49:43.378Z,38.25
2019-03-20T08:52:14.446Z,42.67
2019-03-20T08:54:45.503Z,40.88
2019-03-20T08:57:16.685Z,42.08
2019-03-20T08:59:47.857Z,41.75
2019-03-20T09:02:18.888Z,39.70
2019-03-20T09:04:50.019Z,39.98
2019-03-20T09:07:21.058Z,40.28
2019-03-20T09:09:52.424Z,40.03
2019-03-20T09:12:23.605Z,40.85
2019-03-20T09:14:54.786Z,39.85
2019-03-20T09:17:25.826Z,36.83
2019-03-20T09:19:56.977Z,34.33
2019-03-20T09:22:28.104Z,33.85
2019-03-20T09:24:59.149Z,33.65
2019-03-20T09:27:30.317Z,34.13
2019-03-20T09:30:01.443Z,38.35
2019-03-20T09:32:32.494Z,36.83
2019-03-20T09:35:06.862Z,38.92
2019-03-20T09:37:36.939Z,37.80
2019-03-20T09:40:24.828Z,40.03
2019-03-20T09:42:56.016Z,40.60
2019-03-20T09:45:27.126Z,38.25
2019-03-20T09:47:58.407Z,39.10
2019-03-20T09:50:29.812Z,40.00
2019-03-20T09:53:00.867Z,37.83
2019-03-20T09:55:32.034Z,35.73
2019-03-20T09:58:11.191Z,32.78
2019-03-20T10:00:35.943Z,33.15
2019-03-20T10:03:07.110Z,32.70
2019-03-20T10:05:38.266Z,32.03
2019-03-20T10:08:09.317Z,32.83
2019-03-20T10:10:40.354Z,24.63
2019-03-20T10:13:11.475Z,28.95
2019-03-20T10:15:42.496Z,33.45
2019-03-20T10:18:13.604Z,30.80
2019-03-20T10:20:44.749Z,25.70
2019-03-20T10:23:16.120Z,22.65
2019-03-20T10:25:47.248Z,22.73
2019-03-20T10:28:18.327Z,21.87
2019-03-20T10:30:49.370Z,21.93
2019-03-20T10:33:20.526Z,21.40
2019-03-20T10:35:51.682Z,20.60
2019-03-20T10:38:22.698Z,14.70
2019-03-20T10:40:53.782Z,16.80
2019-03-20T10:43:24.892Z,18.73
2019-03-20T10:45:55.973Z,17.50
2019-03-20T10:48:27.178Z,18.75
2019-03-20T10:50:58.248Z,18.92
2019-03-20T10:53:29.369Z,17.45
2019-03-20T10:56:00.876Z,18.82
2019-03-20T10:58:31.991Z,18.57
2019-03-20T11:01:03.130Z,17.00
2019-03-20T11:03:35.298Z,17.70
2019-03-20T11:06:06.466Z,19.12
2019-03-20T11:08:37.569Z,16.35
2019-03-20T11:11:08.657Z,16.77
2019-03-20T11:13:39.748Z,16.20
2019-03-20T11:16:10.925Z,15.48
2019-03-20T11:18:42.126Z,16.67
2019-03-20T11:21:13.296Z,17.77
2019-03-20T11:23:44.433Z,17.73
2019-03-20T11:26:15.541Z,21.68
2019-03-20T11:28:46.621Z,21.52
2019-03-20T11:31:17.672Z,21.02
2019-03-20T11:33:48.668Z,23.55
2019-03-20T11:36:19.663Z,21.25
2019-03-20T11:38:50.723Z,22.20
2019-03-20T11:41:21.831Z,21.90
2019-03-20T11:43:52.940Z,22.90
2019-03-20T11:46:24.402Z,23.05
2019-03-20T11:48:55.390Z,22.98
2019-03-20T11:51:26.450Z,27.82
2019-03-20T11:53:57.557Z,29.98
2019-03-20T11:56:29.004Z,32.95
2019-03-20T11:59:00.061Z,27.55
2019-03-20T12:01:31.254Z,27.22
2019-03-20T12:04:02.317Z,26.65
2019-03-20T12:06:33.296Z,29.18
2019-03-20T12:09:07.526Z,27.37
2019-03-20T12:11:45.739Z,27.70
2019-03-20T12:14:11.540Z,23.85
2019-03-20T12:16:42.594Z,25.25
2019-03-20T12:19:13.772Z,25.10
2019-03-20T12:21:44.937Z,27.77
2019-03-20T12:24:16.083Z,30.55
2019-03-20T12:26:47.275Z,30.70
2019-03-20T12:29:18.367Z,29.70
2019-03-20T12:31:49.416Z,31.00
2019-03-20T12:34:20.603Z,29.02
2019-03-20T12:36:51.910Z,31.35
2019-03-20T12:39:22.981Z,28.42
2019-03-20T12:41:54.059Z,30.15
2019-03-20T12:44:25.194Z,35.20
2019-03-20T12:46:56.282Z,32.40
2019-03-20T12:49:27.363Z,30.37
2019-03-20T12:51:58.468Z,30.88
2019-03-20T12:54:29.445Z,33.60
2019-03-20T12:57:00.693Z,32.42
2019-03-20T12:59:31.833Z,30.70
2019-03-20T13:02:02.820Z,34.05
2019-03-20T13:04:34.005Z,31.00
2019-03-20T13:07:05.187Z,31.68
2019-03-20T13:09:36.296Z,34.90
2019-03-20T13:12:07.415Z,35.52
2019-03-20T13:14:40.906Z,33.10
2019-03-20T13:17:11.858Z,33.33
2019-03-20T13:19:43.065Z,31.62
2019-03-20T13:22:14.138Z,30.60
2019-03-20T13:24:47.778Z,30.88
2019-03-20T13:27:21.024Z,32.28
2019-03-20T13:29:52.083Z,31.45
2019-03-20T13:32:23.276Z,31.57
2019-03-20T13:34:54.371Z,31.12
2019-03-20T13:37:25.422Z,31.15
2019-03-20T13:39:56.515Z,32.48
2019-03-20T13:42:27.598Z,31.27
2019-03-20T13:44:58.790Z,32.83
2019-03-20T13:47:29.988Z,31.45
2019-03-20T13:50:01.199Z,31.62
2019-03-20T13:52:32.337Z,31.25
2019-03-20T13:55:04.287Z,32.63
2019-03-20T13:57:35.663Z,34.88
2019-03-20T14:00:16.129Z,32.75
2019-03-20T14:02:47.298Z,36.28
2019-03-20T14:05:18.376Z,34.20
2019-03-20T14:07:49.380Z,31.45
2019-03-20T14:10:25.678Z,32.58
2019-03-20T14:12:56.864Z,30.45
2019-03-20T14:15:28.087Z,29.82
2019-03-20T14:17:59.163Z,30.62
2019-03-20T14:20:31.093Z,29.05
2019-03-20T14:23:02.131Z,28.02
2019-03-20T14:25:33.161Z,32.20
2019-03-20T14:28:04.331Z,29.75
2019-03-20T14:30:35.392Z,27.73
2019-03-20T14:33:06.512Z,29.87
2019-03-20T14:35:37.982Z,28.90
2019-03-20T14:38:09.144Z,28.98
2019-03-20T14:40:40.235Z,28.05
2019-03-20T14:43:11.278Z,28.02
2019-03-20T14:45:42.296Z,31.65
2019-03-20T14:48:13.558Z,50.48
2019-03-20T14:50:44.844Z,37.40
2019-03-20T14:53:17.049Z,30.90
2019-03-20T14:55:48.214Z,35.00
2019-03-20T14:58:19.441Z,29.60
2019-03-20T15:00:50.857Z,30.50
2019-03-20T15:03:22.163Z,29.90
2019-03-20T15:05:53.666Z,27.60
2019-03-20T15:08:25.166Z,27.35
2019-03-20T15:10:56.312Z,28.92
2019-03-20T15:13:27.828Z,50.58
2019-03-20T15:16:07.821Z,90.83
2019-03-20T15:18:38.983Z,42.85
2019-03-20T15:21:11.136Z,32.55
2019-03-20T15:23:42.127Z,31.35
2019-03-20T15:26:13.314Z,32.65
2019-03-20T15:28:44.441Z,32.67
2019-03-20T15:31:17.214Z,34.67
2019-03-20T15:33:48.309Z,34.33
2019-03-20T15:36:19.559Z,33.67
2019-03-20T15:38:50.930Z,32.60
2019-03-20T15:41:21.887Z,31.25
2019-03-20T15:44:02.104Z,33.88
2019-03-20T15:46:25.831Z,31.57
2019-03-20T15:48:56.954Z,31.00
2019-03-20T15:51:28.049Z,34.43
2019-03-20T15:53:59.067Z,35.55
2019-03-20T15:56:30.147Z,34.48
2019-03-20T15:59:01.290Z,35.65
2019-03-20T16:01:32.484Z,36.63
2019-03-20T16:04:04.446Z,33.33
2019-03-20T16:06:35.490Z,32.33
2019-03-20T16:09:08.526Z,34.48
2019-03-20T16:11:39.655Z,34.58
2019-03-20T16:14:10.988Z,30.88
2019-03-20T16:16:42.133Z,32.67
2019-03-20T16:19:13.237Z,32.58
2019-03-20T16:21:44.425Z,34.00
2019-03-20T16:24:15.568Z,32.90
2019-03-20T16:26:46.581Z,33.45
2019-03-20T16:29:17.729Z,31.70
2019-03-20T16:31:48.758Z,31.95
2019-03-20T16:34:19.805Z,30.37
2019-03-20T16:36:50.872Z,34.40
2019-03-20T16:39:22.116Z,28.52
2019-03-20T16:41:53.241Z,27.25
2019-03-20T16:44:24.215Z,29.67
2019-03-20T16:46:55.366Z,29.75
2019-03-20T16:49:26.455Z,29.90
2019-03-20T16:51:58.620Z,30.27
2019-03-20T16:54:29.660Z,30.70
2019-03-20T16:57:00.820Z,30.08
2019-03-20T16:59:32.481Z,30.88
2019-03-20T17:02:03.625Z,30.82
2019-03-20T17:04:34.957Z,28.30
2019-03-20T17:07:06.611Z,28.87
2019-03-20T17:09:37.902Z,26.62
2019-03-20T17:12:09.017Z,27.90
2019-03-20T17:14:41.734Z,29.00
2019-03-20T17:17:14.104Z,27.40
2019-03-20T17:19:45.158Z,27.07
2019-03-20T17:22:16.447Z,26.93
2019-03-20T17:24:47.642Z,27.27
2019-03-20T17:27:18.790Z,26.60
2019-03-20T17:29:50.015Z,26.25
2019-03-20T17:32:21.449Z,26.33
2019-03-20T17:34:52.445Z,27.00
2019-03-20T17:37:23.595Z,28.62
2019-03-20T17:39:54.654Z,30.40
2019-03-20T17:42:25.938Z,30.65
2019-03-20T17:44:56.943Z,30.23
2019-03-20T17:47:27.973Z,32.23
2019-03-20T17:49:59.137Z,31.30
2019-03-20T17:52:31.184Z,33.40
2019-03-20T17:55:02.271Z,32.25
2019-03-20T17:57:33.267Z,32.48
2019-03-20T18:00:13.149Z,33.83
2019-03-20T18:02:44.292Z,32.15
2019-03-20T18:05:15.450Z,31.97
2019-03-20T18:07:46.566Z,32.10
2019-03-20T18:10:17.784Z,30.27
2019-03-20T18:12:48.845Z,29.23
2019-03-20T18:15:21.032Z,28.00
2019-03-20T18:17:52.123Z,26.27
2019-03-20T18:20:23.090Z,26.50
2019-03-20T18:22:54.109Z,28.55
2019-03-20T18:25:25.297Z,27.95
2019-03-20T18:27:56.549Z,27.55
2019-03-20T18:30:32.593Z,27.55
2019-03-20T18:33:04.692Z,25.60
2019-03-20T18:35:35.745Z,23.90
2019-03-20T18:38:07.559Z,24.60
2019-03-20T18:40:38.640Z,21.93
2019-03-20T18:43:09.784Z,22.58
2019-03-20T18:45:40.921Z,22.98
2019-03-20T18:48:12.038Z,24.40
2019-03-20T18:50:44.140Z,23.98
2019-03-20T18:53:15.215Z,23.55
2019-03-20T18:55:46.601Z,28.23
2019-03-20T18:58:17.882Z,24.12
2019-03-20T19:00:48.989Z,22.35
2019-03-20T19:03:26.507Z,22.73
2019-03-20T19:06:06.827Z,23.80
2019-03-20T19:08:37.971Z,23.55
2019-03-20T19:11:09.112Z,23.10
2019-03-20T19:13:40.252Z,23.42
2019-03-20T19:16:11.473Z,21.05
2019-03-20T19:18:42.556Z,22.87
2019-03-20T19:21:13.694Z,20.65
2019-03-20T19:23:44.728Z,17.40
2019-03-20T19:26:15.820Z,17.35
2019-03-20T19:28:46.922Z,18.12
2019-03-20T19:31:18.041Z,16.27
2019-03-20T19:33:49.152Z,16.65
2019-03-20T19:36:20.133Z,17.55
2019-03-20T19:38:51.197Z,16.27
2019-03-20T19:41:22.399Z,17.77
2019-03-20T19:43:54.345Z,16.52
2019-03-20T19:46:25.418Z,15.50
2019-03-20T19:48:57.597Z,14.95
2019-03-20T19:51:28.635Z,15.85
2019-03-20T19:53:59.625Z,14.15
2019-03-20T19:56:30.736Z,16.85
2019-03-20T19:59:02.785Z,13.75
2019-03-20T20:01:33.826Z,12.60
2019-03-20T20:04:04.973Z,14.10
2019-03-20T20:06:36.261Z,12.53
2019-03-20T20:09:07.701Z,12.25
2019-03-20T20:11:38.760Z,10.75
2019-03-20T20:14:10.140Z,11.75
2019-03-20T20:16:41.307Z,11.57
2019-03-20T20:19:12.347Z,11.18
2019-03-20T20:21:43.467Z,10.45
2019-03-20T20:24:14.637Z,11.30
2019-03-20T20:26:45.762Z,10.32
2019-03-20T20:29:16.935Z,9.60
2019-03-20T20:31:47.845Z,9.80
2019-03-20T20:34:18.805Z,10.38
2019-03-20T20:36:49.959Z,9.98
2019-03-20T20:39:20.960Z,10.80
2019-03-20T20:41:51.993Z,11.25
2019-03-20T20:44:22.978Z,10.90
2019-03-20T20:46:53.989Z,10.82
2019-03-20T20:49:25.058Z,11.50
2019-03-20T20:51:56.207Z,11.57
2019-03-20T20:54:27.335Z,11.25
2019-03-20T20:56:58.499Z,11.28
2019-03-20T20:59:30.635Z,24.25
2019-03-20T21:02:01.778Z,11.90
2019-03-20T21:04:33.028Z,12.13
2019-03-20T21:07:04.109Z,12.88
2019-03-20T21:09:35.219Z,12.90
2019-03-20T21:12:06.350Z,13.95
2019-03-20T21:14:37.433Z,12.13
2019-03-20T21:17:12.117Z,11.50
2019-03-20T21:19:43.164Z,11.73
2019-03-20T21:22:32.537Z,11.18
2019-03-20T21:25:03.771Z,10.93
2019-03-20T21:28:11.189Z,10.50
2019-03-20T21:30:56.852Z,11.70
2019-03-20T21:33:36.789Z,11.68
2019-03-20T21:36:44.582Z,10.53
2019-03-20T21:39:15.841Z,11.55
2019-03-20T21:42:21.343Z,12.25
2019-03-20T21:45:10.037Z,11.90
2019-03-20T21:47:41.142Z,10.80
2019-03-20T21:50:21.535Z,11.57
2019-03-20T21:52:52.966Z,11.03
2019-03-20T21:55:46.683Z,11.20
2019-03-20T21:58:21.126Z,11.60
2019-03-20T22:01:27.005Z,11.85
2019-03-20T22:03:58.023Z,12.05
2019-03-20T22:06:35.499Z,12.37
2019-03-20T22:09:09.143Z,12.10
2019-03-20T22:12:12.239Z,12.03
2019-03-20T22:14:46.217Z,12.13
2019-03-20T22:17:26.225Z,12.90
2019-03-20T22:20:03.229Z,16.50
2019-03-20T22:23:01.089Z,14.95
2019-03-20T22:25:41.706Z,13.40
2019-03-20T22:28:35.310Z,14.00
2019-03-20T22:31:06.432Z,14.55
2019-03-20T22:34:14.520Z,13.90
2019-03-20T22:36:45.584Z,13.43
2019-03-20T22:39:48.781Z,13.15
2019-03-20T22:42:25.700Z,12.70
2019-03-20T22:45:12.039Z,13.22
2019-03-20T22:48:02.642Z,11.83
2019-03-20T22:50:55.048Z,12.10
2019-03-20T22:54:02.513Z,11.65
2019-03-20T22:56:45.602Z,11.50
2019-03-20T22:59:16.722Z,10.43
2019-03-20T23:02:06.245Z,9.90
2019-03-20T23:04:52.621Z,10.75
2019-03-20T23:07:23.886Z,10.10
2019-03-20T23:09:55.040Z,9.33
2019-03-20T23:12:25.930Z,10.28
2019-03-20T23:14:57.178Z,9.93
2019-03-20T23:17:28.136Z,9.43
2019-03-20T23:19:59.112Z,9.85
2019-03-20T23:22:30.103Z,10.28
2019-03-20T23:25:01.271Z,9.48
2019-03-20T23:27:32.287Z,10.30
2019-03-20T23:30:04.791Z,9.70
2019-03-20T23:32:35.795Z,9.48
2019-03-20T23:35:08.382Z,9.78
2019-03-20T23:37:39.494Z,11.00
2019-03-20T23:40:15.531Z,9.35
2019-03-20T23:42:52.568Z,9.15
2019-03-20T23:45:23.547Z,9.68
2019-03-20T23:48:01.835Z,16.10
2019-03-20T23:50:32.880Z,18.27
2019-03-20T23:53:03.996Z,13.55
2019-03-20T23:55:35.144Z,13.55
2019-03-20T23:58:06.268Z,11.57
